createdAt,value
2018-10-18T00:00:49.995Z,81.07
2018-10-18T00:01:49.973Z,81.18
2018-10-18T00:02:50.023Z,81.38
2018-10-18T00:03:49.949Z,81.38
2018-10-18T00:04:49.940Z,82.19
2018-10-18T00:05:49.933Z,82.19
2018-10-18T00:06:49.927Z,82.59
2018-10-18T00:07:49.968Z,81.52
2018-10-18T00:08:49.902Z,81.31
2018-10-18T00:09:49.891Z,81.21
2018-10-18T00:10:49.876Z,80.66
2018-10-18T00:11:49.865Z,81.31
2018-10-18T00:12:50.233Z,81.62
2018-10-18T00:13:49.847Z,81.92
2018-10-18T00:14:49.832Z,80.71
2018-10-18T00:15:49.821Z,81.48
2018-10-18T00:16:49.816Z,82.12
2018-10-18T00:17:49.868Z,83.75
2018-10-18T00:18:49.790Z,83.14
2018-10-18T00:19:49.782Z,82.53
2018-10-18T00:20:49.772Z,82.53
2018-10-18T00:21:49.761Z,83.04
2018-10-18T00:22:49.816Z,82.53
2018-10-18T00:23:49.741Z,83.14
2018-10-18T00:24:49.743Z,83.65
2018-10-18T00:25:49.718Z,83.45
2018-10-18T00:26:49.713Z,83.95
2018-10-18T00:27:49.758Z,84.05
2018-10-18T00:28:49.688Z,85.07
2018-10-18T00:29:49.682Z,82.87
2018-10-18T00:30:49.663Z,83.48
2018-10-18T00:31:49.652Z,84.09
2018-10-18T00:32:49.706Z,83.79
2018-10-18T00:33:50.157Z,83.79
2018-10-18T00:34:49.624Z,83.99
2018-10-18T00:35:49.616Z,84.80
2018-10-18T00:36:49.610Z,83.59
2018-10-18T00:37:49.649Z,83.59
2018-10-18T00:38:49.580Z,83.79
2018-10-18T00:39:49.572Z,83.38
2018-10-18T00:40:49.561Z,84.09
2018-10-18T00:41:49.550Z,83.18
2018-10-18T00:42:49.597Z,83.79
2018-10-18T00:43:49.527Z,83.59
2018-10-18T00:44:49.514Z,83.12
2018-10-18T00:45:49.506Z,83.59
2018-10-18T00:46:49.492Z,83.48
2018-10-18T00:47:49.560Z,83.28
2018-10-18T00:48:49.478Z,82.98
2018-10-18T00:49:49.464Z,82.47
2018-10-18T00:50:49.450Z,82.61
2018-10-18T00:51:49.442Z,84.30
2018-10-18T00:52:49.496Z,84.30
2018-10-18T00:53:49.424Z,83.79
2018-10-18T00:54:50.160Z,83.62
2018-10-18T00:55:49.402Z,83.28
2018-10-18T00:56:49.395Z,85.31
2018-10-18T00:57:49.460Z,85.21
2018-10-18T00:58:49.369Z,85.21
2018-10-18T00:59:49.356Z,85.31
2018-10-18T01:00:49.345Z,85.55
2018-10-18T01:01:49.336Z,85.11
2018-10-18T01:02:49.392Z,85.41
2018-10-18T01:03:49.317Z,85.52
2018-10-18T01:04:49.300Z,85.21
2018-10-18T01:05:49.336Z,85.25
2018-10-18T01:06:49.278Z,85.25
2018-10-18T01:07:49.338Z,85.35
2018-10-18T01:08:49.259Z,85.35
2018-10-18T01:09:49.248Z,84.03
2018-10-18T01:10:49.239Z,85.35
2018-10-18T01:11:49.223Z,83.83
2018-10-18T01:12:49.282Z,83.83
2018-10-18T01:13:49.216Z,84.64
2018-10-18T01:14:49.200Z,83.73
2018-10-18T01:15:50.156Z,84.03
2018-10-18T01:16:49.186Z,84.34
2018-10-18T01:17:49.221Z,85.15
2018-10-18T01:18:49.154Z,85.05
2018-10-18T01:19:49.140Z,83.42
2018-10-18T01:20:49.135Z,83.87
2018-10-18T01:21:49.119Z,83.36
2018-10-18T01:22:49.189Z,85.39
2018-10-18T01:23:49.096Z,83.97
2018-10-18T01:24:49.088Z,84.48
2018-10-18T01:25:49.076Z,84.88
2018-10-18T01:26:49.063Z,85.49
2018-10-18T01:27:49.153Z,85.49
2018-10-18T01:28:49.111Z,84.88
2018-10-18T01:29:49.047Z,84.68
2018-10-18T01:30:49.024Z,85.35
2018-10-18T01:31:49.015Z,85.35
2018-10-18T01:32:49.005Z,85.39
2018-10-18T01:33:49.054Z,85.80
2018-10-18T01:34:48.995Z,86.16
2018-10-18T01:35:48.970Z,85.90
2018-10-18T01:36:49.654Z,85.90
2018-10-18T01:37:48.951Z,86.07
2018-10-18T01:38:48.996Z,85.29
2018-10-18T01:39:48.940Z,84.99
2018-10-18T01:40:48.927Z,85.29
2018-10-18T01:41:48.905Z,85.90
2018-10-18T01:42:48.910Z,86.00
2018-10-18T01:43:48.952Z,85.09
2018-10-18T01:44:48.872Z,83.67
2018-10-18T01:45:48.865Z,82.54
2018-10-18T01:46:48.862Z,85.29
2018-10-18T01:47:48.841Z,86.00
2018-10-18T01:48:49.230Z,84.28
2018-10-18T01:49:48.822Z,83.97
2018-10-18T01:50:48.808Z,85.35
2018-10-18T01:51:48.800Z,85.96
2018-10-18T01:52:48.806Z,86.07
2018-10-18T01:53:48.841Z,85.96
2018-10-18T01:54:48.774Z,83.62
2018-10-18T01:55:48.755Z,85.35
2018-10-18T01:56:48.745Z,85.92
2018-10-18T01:57:49.655Z,85.92
2018-10-18T01:58:48.797Z,85.46
2018-10-18T01:59:48.713Z,85.31
2018-10-18T02:00:48.703Z,85.31
2018-10-18T02:01:48.692Z,85.11
2018-10-18T02:02:48.686Z,85.21
2018-10-18T02:03:48.738Z,85.21
2018-10-18T02:04:48.675Z,85.31
2018-10-18T02:05:48.650Z,84.09
2018-10-18T02:06:48.642Z,85.31
2018-10-18T02:07:48.630Z,84.60
2018-10-18T02:08:48.706Z,83.69
2018-10-18T02:09:48.609Z,83.38
2018-10-18T02:10:48.594Z,83.69
2018-10-18T02:11:48.587Z,85.38
2018-10-18T02:12:48.605Z,83.24
2018-10-18T02:13:48.679Z,84.16
2018-10-18T02:14:48.556Z,83.95
2018-10-18T02:15:48.545Z,82.03
2018-10-18T02:16:48.534Z,82.64
2018-10-18T02:17:48.523Z,82.73
2018-10-18T02:18:48.747Z,83.45
2018-10-18T02:19:48.501Z,83.95
2018-10-18T02:20:48.492Z,83.54
2018-10-18T02:21:48.487Z,82.12
2018-10-18T02:22:48.467Z,80.71
2018-10-18T02:23:48.523Z,81.62
2018-10-18T02:24:48.451Z,83.34
2018-10-18T02:25:48.437Z,83.75
2018-10-18T02:26:48.429Z,81.41
2018-10-18T02:27:48.415Z,80.77
2018-10-18T02:28:48.467Z,80.80
2018-10-18T02:29:48.392Z,81.52
2018-10-18T02:30:48.385Z,81.41
2018-10-18T02:31:48.373Z,82.12
2018-10-18T02:32:48.362Z,81.99
2018-10-18T02:33:55.984Z,83.75
2018-10-18T02:34:48.341Z,82.29
2018-10-18T02:35:56.565Z,81.99
2018-10-18T02:36:56.463Z,82.19
2018-10-18T02:37:48.307Z,82.09
2018-10-18T02:38:48.362Z,83.31
2018-10-18T02:39:48.288Z,85.33
2018-10-18T02:40:48.277Z,84.22
2018-10-18T02:41:48.268Z,83.51
2018-10-18T02:42:57.415Z,83.54
2018-10-18T02:43:55.852Z,82.73
2018-10-18T02:44:56.344Z,82.50
2018-10-18T02:45:48.229Z,82.12
2018-10-18T02:46:48.215Z,83.51
2018-10-18T02:47:48.236Z,83.61
2018-10-18T02:48:48.252Z,85.24
2018-10-18T02:49:48.188Z,84.01
2018-10-18T02:50:48.201Z,82.59
2018-10-18T02:51:48.163Z,81.68
2018-10-18T02:52:48.152Z,83.81
2018-10-18T02:53:48.199Z,83.81
2018-10-18T02:54:48.130Z,82.29
2018-10-18T02:55:48.118Z,84.12
2018-10-18T02:56:48.119Z,83.00
2018-10-18T02:57:48.869Z,82.70
2018-10-18T02:58:48.154Z,83.61
2018-10-18T02:59:48.075Z,84.93
2018-10-18T03:00:48.063Z,85.13
2018-10-18T03:01:48.055Z,84.63
2018-10-18T03:02:48.050Z,83.61
2018-10-18T03:03:48.104Z,83.31
2018-10-18T03:04:48.020Z,85.44
2018-10-18T03:05:48.012Z,85.24
2018-10-18T03:06:48.005Z,85.24
2018-10-18T03:07:47.991Z,84.32
2018-10-18T03:08:48.038Z,85.13
2018-10-18T03:09:47.967Z,85.03
2018-10-18T03:10:47.959Z,85.24
2018-10-18T03:11:47.945Z,83.71
2018-10-18T03:12:47.939Z,85.33
2018-10-18T03:13:48.010Z,84.12
2018-10-18T03:14:47.917Z,83.71
2018-10-18T03:15:47.960Z,83.61
2018-10-18T03:16:47.898Z,85.03
2018-10-18T03:17:47.887Z,85.13
2018-10-18T03:18:48.440Z,85.03
2018-10-18T03:19:47.866Z,85.84
2018-10-18T03:20:47.854Z,84.12
2018-10-18T03:21:47.848Z,84.93
2018-10-18T03:22:47.834Z,84.12
2018-10-18T03:23:47.900Z,85.03
2018-10-18T03:24:47.810Z,85.74
2018-10-18T03:25:47.801Z,86.65
2018-10-18T03:26:47.790Z,85.03
2018-10-18T03:27:47.775Z,86.05
2018-10-18T03:28:47.765Z,85.13
2018-10-18T03:29:47.821Z,85.03
2018-10-18T03:30:47.743Z,85.74
2018-10-18T03:31:47.742Z,85.03
2018-10-18T03:32:47.726Z,84.01
2018-10-18T03:33:47.712Z,85.03
2018-10-18T03:34:47.762Z,85.24
2018-10-18T03:35:47.696Z,84.22
2018-10-18T03:36:47.678Z,84.83
2018-10-18T03:37:47.672Z,85.33
2018-10-18T03:38:47.664Z,85.64
2018-10-18T03:39:47.935Z,83.61
2018-10-18T03:40:47.640Z,83.81
2018-10-18T03:41:47.626Z,85.13
2018-10-18T03:42:47.621Z,85.64
2018-10-18T03:43:47.610Z,85.84
2018-10-18T03:44:47.654Z,85.84
2018-10-18T03:45:47.590Z,85.84
2018-10-18T03:46:47.577Z,86.15
2018-10-18T03:47:47.563Z,86.25
2018-10-18T03:48:47.552Z,86.15
2018-10-18T03:49:47.945Z,86.76
2018-10-18T03:50:47.532Z,86.45
2018-10-18T03:51:47.521Z,86.45
2018-10-18T03:52:47.510Z,86.25
2018-10-18T03:53:47.502Z,86.65
2018-10-18T03:54:47.549Z,86.35
2018-10-18T03:55:47.480Z,86.45
2018-10-18T03:56:47.469Z,87.16
2018-10-18T03:57:47.457Z,86.31
2018-10-18T03:58:47.449Z,87.06
2018-10-18T03:59:47.582Z,86.65
2018-10-18T04:00:48.360Z,87.16
2018-10-18T04:01:47.421Z,86.45
2018-10-18T04:02:47.405Z,87.06
2018-10-18T04:03:47.394Z,86.96
2018-10-18T04:04:47.445Z,87.26
2018-10-18T04:05:47.369Z,86.71
2018-10-18T04:06:47.369Z,86.76
2018-10-18T04:07:47.355Z,87.37
2018-10-18T04:08:47.349Z,86.65
2018-10-18T04:09:47.398Z,86.96
2018-10-18T04:10:47.325Z,86.86
2018-10-18T04:11:47.308Z,87.37
2018-10-18T04:12:47.369Z,86.86
2018-10-18T04:13:47.292Z,86.96
2018-10-18T04:14:47.338Z,87.26
2018-10-18T04:15:47.267Z,87.06
2018-10-18T04:16:47.256Z,87.43
2018-10-18T04:17:47.255Z,86.86
2018-10-18T04:18:47.241Z,87.16
2018-10-18T04:19:47.288Z,86.96
2018-10-18T04:20:47.230Z,86.05
2018-10-18T04:21:47.857Z,86.05
2018-10-18T04:22:47.191Z,86.35
2018-10-18T04:23:47.179Z,85.50
2018-10-18T04:24:47.236Z,85.53
2018-10-18T04:25:47.159Z,86.25
2018-10-18T04:26:47.157Z,86.65
2018-10-18T04:27:47.138Z,87.06
2018-10-18T04:28:47.125Z,86.96
2018-10-18T04:29:47.184Z,86.61
2018-10-18T04:30:47.107Z,87.16
2018-10-18T04:31:47.093Z,86.96
2018-10-18T04:32:47.086Z,86.96
2018-10-18T04:33:47.073Z,86.65
2018-10-18T04:34:47.136Z,86.35
2018-10-18T04:35:47.060Z,86.35
2018-10-18T04:36:47.050Z,86.35
2018-10-18T04:37:47.035Z,86.05
2018-10-18T04:38:47.021Z,86.65
2018-10-18T04:39:47.069Z,86.35
2018-10-18T04:40:47.018Z,87.06
2018-10-18T04:41:46.988Z,86.86
2018-10-18T04:42:47.859Z,87.16
2018-10-18T04:43:46.968Z,86.55
2018-10-18T04:44:47.024Z,86.96
2018-10-18T04:45:46.946Z,86.55
2018-10-18T04:46:46.940Z,86.25
2018-10-18T04:47:47.030Z,86.10
2018-10-18T04:48:46.935Z,87.02
2018-10-18T04:49:46.905Z,87.37
2018-10-18T04:50:46.956Z,86.51
2018-10-18T04:51:46.883Z,87.12
2018-10-18T04:52:46.870Z,86.31
2018-10-18T04:53:46.862Z,86.31
2018-10-18T04:54:46.854Z,86.55
2018-10-18T04:55:46.899Z,87.02
2018-10-18T04:56:46.894Z,86.61
2018-10-18T04:57:46.819Z,85.64
2018-10-18T04:58:46.809Z,86.31
2018-10-18T04:59:46.796Z,86.61
2018-10-18T05:00:46.849Z,85.74
2018-10-18T05:01:46.782Z,87.02
2018-10-18T05:02:46.826Z,86.31
2018-10-18T05:03:49.354Z,86.41
2018-10-18T05:04:46.751Z,86.31
2018-10-18T05:05:46.793Z,85.70
2018-10-18T05:06:46.725Z,85.90
2018-10-18T05:07:46.713Z,86.41
2018-10-18T05:08:46.703Z,86.00
2018-10-18T05:09:46.694Z,86.31
2018-10-18T05:10:46.743Z,85.80
2018-10-18T05:11:46.668Z,86.61
2018-10-18T05:12:46.746Z,86.31
2018-10-18T05:13:46.649Z,86.41
2018-10-18T05:14:46.636Z,86.00
2018-10-18T05:15:46.688Z,86.61
2018-10-18T05:16:46.624Z,85.60
2018-10-18T05:17:46.608Z,85.80
2018-10-18T05:18:46.594Z,85.76
2018-10-18T05:19:46.588Z,85.70
2018-10-18T05:20:46.635Z,86.41
2018-10-18T05:21:46.565Z,85.76
2018-10-18T05:22:46.558Z,86.31
2018-10-18T05:23:46.594Z,85.70
2018-10-18T05:24:47.409Z,85.05
2018-10-18T05:25:46.578Z,85.09
2018-10-18T05:26:46.510Z,85.50
2018-10-18T05:27:46.500Z,85.50
2018-10-18T05:28:46.496Z,85.70
2018-10-18T05:29:46.480Z,85.70
2018-10-18T05:30:46.533Z,85.05
2018-10-18T05:31:46.530Z,85.19
2018-10-18T05:32:47.351Z,85.70
2018-10-18T05:33:46.444Z,85.15
2018-10-18T05:34:46.428Z,85.76
2018-10-18T05:35:46.480Z,85.76
2018-10-18T05:36:46.405Z,85.66
2018-10-18T05:37:46.488Z,85.05
2018-10-18T05:38:46.381Z,85.50
2018-10-18T05:39:46.375Z,85.46
2018-10-18T05:40:46.422Z,84.04
2018-10-18T05:41:46.350Z,85.15
2018-10-18T05:42:46.339Z,84.95
2018-10-18T05:43:46.339Z,85.15
2018-10-18T05:44:46.320Z,85.42
2018-10-18T05:45:46.428Z,84.85
2018-10-18T05:46:46.340Z,85.25
2018-10-18T05:47:46.290Z,84.95
2018-10-18T05:48:46.304Z,84.81
2018-10-18T05:49:46.270Z,85.01
2018-10-18T05:50:46.425Z,85.01
2018-10-18T05:51:46.250Z,84.91
2018-10-18T05:52:46.238Z,85.01
2018-10-18T05:53:46.330Z,85.17
2018-10-18T05:54:46.214Z,84.81
2018-10-18T05:55:46.265Z,85.17
2018-10-18T05:56:46.192Z,84.30
2018-10-18T05:57:46.181Z,83.45
2018-10-18T05:58:46.173Z,83.18
2018-10-18T05:59:46.165Z,83.80
2018-10-18T06:00:46.213Z,83.15
2018-10-18T06:01:46.137Z,83.35
2018-10-18T06:02:46.128Z,83.65
2018-10-18T06:03:46.136Z,83.45
2018-10-18T06:04:46.104Z,83.35
2018-10-18T06:05:46.156Z,83.15
2018-10-18T06:06:46.090Z,83.04
2018-10-18T06:07:46.071Z,83.76
2018-10-18T06:08:46.072Z,83.04
2018-10-18T06:09:46.075Z,83.76
2018-10-18T06:10:46.419Z,83.65
2018-10-18T06:11:46.035Z,82.95
2018-10-18T06:12:46.024Z,83.35
2018-10-18T06:13:46.010Z,82.75
2018-10-18T06:14:53.573Z,83.45
2018-10-18T06:15:54.155Z,82.70
2018-10-18T06:16:45.979Z,83.35
2018-10-18T06:17:45.971Z,82.34
2018-10-18T06:18:45.960Z,81.02
2018-10-18T06:19:45.946Z,82.34
2018-10-18T06:20:45.996Z,82.30
2018-10-18T06:21:45.924Z,81.93
2018-10-18T06:22:45.977Z,82.03
2018-10-18T06:23:45.908Z,82.60
2018-10-18T06:24:45.896Z,81.18
2018-10-18T06:25:45.947Z,81.90
2018-10-18T06:26:45.872Z,81.90
2018-10-18T06:27:45.863Z,83.21
2018-10-18T06:28:45.853Z,83.45
2018-10-18T06:29:45.840Z,82.84
2018-10-18T06:30:45.901Z,81.83
2018-10-18T06:31:45.817Z,81.90
2018-10-18T06:32:45.808Z,82.30
2018-10-18T06:33:45.800Z,82.70
2018-10-18T06:34:45.789Z,82.30
2018-10-18T06:35:45.777Z,82.10
2018-10-18T06:36:45.984Z,82.30
2018-10-18T06:37:45.774Z,81.69
2018-10-18T06:38:45.749Z,81.99
2018-10-18T06:39:45.734Z,81.90
2018-10-18T06:40:45.725Z,81.39
2018-10-18T06:41:45.782Z,81.90
2018-10-18T06:42:45.706Z,81.69
2018-10-18T06:43:45.692Z,80.88
2018-10-18T06:44:45.680Z,81.49
2018-10-18T06:45:45.670Z,80.58
2018-10-18T06:46:45.747Z,80.18
2018-10-18T06:47:45.785Z,80.52
2018-10-18T06:48:45.638Z,81.69
2018-10-18T06:49:45.626Z,81.90
2018-10-18T06:50:45.614Z,81.69
2018-10-18T06:51:45.667Z,81.83
2018-10-18T06:52:45.595Z,81.69
2018-10-18T06:53:45.584Z,81.23
2018-10-18T06:54:45.579Z,80.52
2018-10-18T06:55:45.586Z,81.09
2018-10-18T06:56:45.614Z,82.10
2018-10-18T06:57:46.407Z,81.99
2018-10-18T06:58:45.529Z,81.90
2018-10-18T06:59:45.538Z,81.59
2018-10-18T07:00:45.512Z,81.90
2018-10-18T07:01:45.560Z,81.90
2018-10-18T07:02:45.492Z,81.69
2018-10-18T07:03:45.481Z,81.39
2018-10-18T07:04:45.468Z,80.07
2018-10-18T07:05:45.457Z,80.18
2018-10-18T07:06:45.511Z,80.98
2018-10-18T07:07:45.439Z,80.98
2018-10-18T07:08:45.440Z,81.18
2018-10-18T07:09:45.416Z,80.07
2018-10-18T07:10:45.424Z,80.98
2018-10-18T07:11:45.454Z,81.49
2018-10-18T07:12:45.384Z,81.18
2018-10-18T07:13:45.376Z,80.04
2018-10-18T07:14:45.380Z,80.13
2018-10-18T07:15:45.355Z,80.94
2018-10-18T07:16:45.407Z,80.64
2018-10-18T07:17:45.348Z,79.63
2018-10-18T07:18:45.906Z,79.73
2018-10-18T07:19:45.307Z,80.13
2018-10-18T07:20:45.296Z,79.93
2018-10-18T07:21:45.356Z,80.24
2018-10-18T07:22:45.279Z,80.10
2018-10-18T07:23:45.281Z,80.04
2018-10-18T07:24:45.258Z,79.49
2018-10-18T07:25:45.246Z,80.10
2018-10-18T07:26:45.298Z,80.04
2018-10-18T07:27:45.224Z,78.82
2018-10-18T07:28:45.213Z,78.99
2018-10-18T07:29:45.209Z,79.49
2018-10-18T07:30:45.203Z,78.68
2018-10-18T07:31:45.243Z,79.59
2018-10-18T07:32:45.171Z,79.69
2018-10-18T07:33:45.169Z,79.69
2018-10-18T07:34:45.196Z,79.39
2018-10-18T07:35:45.143Z,79.69
2018-10-18T07:36:45.189Z,79.39
2018-10-18T07:37:45.127Z,79.39
2018-10-18T07:38:45.105Z,79.49
2018-10-18T07:39:45.902Z,79.69
2018-10-18T07:40:45.086Z,79.69
2018-10-18T07:41:45.142Z,79.49
2018-10-18T07:42:45.061Z,79.08
2018-10-18T07:43:45.052Z,79.46
2018-10-18T07:44:45.064Z,78.78
2018-10-18T07:45:45.036Z,78.88
2018-10-18T07:46:45.102Z,78.17
2018-10-18T07:47:45.011Z,78.95
2018-10-18T07:48:44.997Z,78.78
2018-10-18T07:49:45.018Z,78.08
2018-10-18T07:50:44.993Z,78.34
2018-10-18T07:51:45.033Z,78.14
2018-10-18T07:52:48.667Z,78.95
2018-10-18T07:53:45.021Z,78.95
2018-10-18T07:54:44.936Z,78.55
2018-10-18T07:55:44.920Z,79.05
2018-10-18T07:56:44.978Z,78.64
2018-10-18T07:57:45.313Z,77.94
2018-10-18T07:58:44.892Z,78.95
2018-10-18T07:59:45.178Z,78.34
2018-10-18T08:00:45.745Z,78.04
2018-10-18T08:01:45.466Z,78.30
2018-10-18T08:02:44.855Z,78.20
2018-10-18T08:03:44.840Z,77.90
2018-10-18T08:04:45.181Z,78.30
2018-10-18T08:05:44.820Z,78.10
2018-10-18T08:06:44.868Z,77.70
2018-10-18T08:07:44.792Z,77.29
2018-10-18T08:08:44.808Z,76.89
2018-10-18T08:09:44.781Z,77.09
2018-10-18T08:10:44.765Z,77.50
2018-10-18T08:11:44.834Z,77.70
2018-10-18T08:12:44.739Z,78.20
2018-10-18T08:13:44.734Z,78.10
2018-10-18T08:14:44.718Z,78.34
2018-10-18T08:15:44.712Z,77.73
2018-10-18T08:16:44.791Z,78.30
2018-10-18T08:17:44.775Z,78.00
2018-10-18T08:18:44.683Z,78.20
2018-10-18T08:19:44.667Z,77.29
2018-10-18T08:20:44.659Z,77.70
2018-10-18T08:21:45.409Z,77.09
2018-10-18T08:22:45.020Z,77.50
2018-10-18T08:23:44.627Z,77.46
2018-10-18T08:24:44.617Z,76.99
2018-10-18T08:25:44.599Z,77.15
2018-10-18T08:26:44.595Z,76.95
2018-10-18T08:27:44.643Z,76.95
2018-10-18T08:28:44.574Z,76.95
2018-10-18T08:29:44.558Z,76.92
2018-10-18T08:30:44.549Z,76.21
2018-10-18T08:31:44.790Z,75.91
2018-10-18T08:32:44.606Z,75.81
2018-10-18T08:33:44.518Z,75.37
2018-10-18T08:34:44.520Z,75.57
2018-10-18T08:35:44.494Z,75.47
2018-10-18T08:36:44.485Z,74.83
2018-10-18T08:37:44.691Z,74.52
2018-10-18T08:38:44.476Z,73.28
2018-10-18T08:39:44.458Z,72.88
2018-10-18T08:40:44.447Z,72.34
2018-10-18T08:41:44.434Z,72.20
2018-10-18T08:42:44.992Z,71.70
2018-10-18T08:43:44.415Z,71.16
2018-10-18T08:44:44.402Z,71.47
2018-10-18T08:45:44.394Z,71.16
2018-10-18T08:46:44.385Z,71.26
2018-10-18T08:47:44.429Z,71.26
2018-10-18T08:48:44.360Z,70.53
2018-10-18T08:49:44.399Z,70.19
2018-10-18T08:50:44.338Z,69.99
2018-10-18T08:51:44.333Z,69.59
2018-10-18T08:52:44.401Z,69.62
2018-10-18T08:53:44.305Z,69.92
2018-10-18T08:54:44.294Z,70.32
2018-10-18T08:55:44.292Z,69.79
2018-10-18T08:56:44.276Z,69.62
2018-10-18T08:57:44.340Z,70.43
2018-10-18T08:58:44.258Z,70.66
2018-10-18T08:59:44.241Z,70.86
2018-10-18T09:00:44.231Z,71.26
2018-10-18T09:01:44.227Z,71.26
2018-10-18T09:02:44.275Z,70.86
2018-10-18T09:03:44.902Z,71.06
2018-10-18T09:04:44.191Z,71.30
2018-10-18T09:05:44.187Z,71.70
2018-10-18T09:06:44.169Z,71.70
2018-10-18T09:07:44.250Z,72.24
2018-10-18T09:08:44.173Z,72.44
2018-10-18T09:09:44.142Z,71.94
2018-10-18T09:10:44.125Z,72.34
2018-10-18T09:11:44.119Z,72.34
2018-10-18T09:12:44.175Z,72.74
2018-10-18T09:13:44.106Z,72.54
2018-10-18T09:14:44.092Z,72.85
2018-10-18T09:15:44.091Z,72.47
2018-10-18T09:16:44.070Z,72.54
2018-10-18T09:17:44.114Z,72.54
2018-10-18T09:18:44.044Z,72.78
2018-10-18T09:19:44.045Z,72.74
2018-10-18T09:20:44.022Z,72.14
2018-10-18T09:21:44.012Z,72.14
2018-10-18T09:22:44.069Z,72.04
2018-10-18T09:23:44.028Z,72.44
2018-10-18T09:24:44.916Z,72.34
2018-10-18T09:25:43.973Z,72.04
2018-10-18T09:26:43.983Z,72.14
2018-10-18T09:27:44.024Z,72.24
2018-10-18T09:28:43.942Z,72.14
2018-10-18T09:29:43.931Z,71.91
2018-10-18T09:30:43.917Z,71.60
2018-10-18T09:31:43.906Z,71.44
2018-10-18T09:32:43.967Z,71.53
2018-10-18T09:33:43.889Z,71.50
2018-10-18T09:34:43.875Z,71.44
2018-10-18T09:35:43.867Z,71.84
2018-10-18T09:36:43.861Z,71.94
2018-10-18T09:37:43.906Z,72.24
2018-10-18T09:38:43.832Z,71.91
2018-10-18T09:39:43.825Z,72.20
2018-10-18T09:40:43.812Z,71.80
2018-10-18T09:41:43.806Z,71.80
2018-10-18T09:42:43.880Z,71.70
2018-10-18T09:43:43.782Z,71.80
2018-10-18T09:44:43.808Z,71.91
2018-10-18T09:45:44.398Z,72.20
2018-10-18T09:46:43.748Z,72.51
2018-10-18T09:47:43.816Z,72.51
2018-10-18T09:48:43.726Z,72.54
2018-10-18T09:49:43.718Z,72.54
2018-10-18T09:50:43.706Z,72.64
2018-10-18T09:51:43.695Z,72.54
2018-10-18T09:52:43.746Z,73.14
2018-10-18T09:53:43.676Z,72.64
2018-10-18T09:54:43.663Z,73.35
2018-10-18T09:55:43.748Z,72.85
2018-10-18T09:56:43.642Z,72.54
2018-10-18T09:57:43.629Z,72.64
2018-10-18T09:58:43.682Z,72.85
2018-10-18T09:59:44.404Z,72.74
2018-10-18T10:00:43.599Z,72.54
2018-10-18T10:01:43.588Z,72.04
2018-10-18T10:02:43.579Z,72.24
2018-10-18T10:03:43.637Z,72.20
2018-10-18T10:04:43.557Z,72.51
2018-10-18T10:05:43.546Z,71.70
2018-10-18T10:06:44.401Z,71.80
2018-10-18T10:07:43.529Z,71.50
2018-10-18T10:08:43.576Z,71.70
2018-10-18T10:09:43.505Z,71.44
2018-10-18T10:10:43.494Z,71.00
2018-10-18T10:11:43.551Z,71.20
2018-10-18T10:12:43.471Z,70.90
2018-10-18T10:13:43.569Z,70.79
2018-10-18T10:14:43.450Z,70.90
2018-10-18T10:15:43.441Z,71.30
2018-10-18T10:16:43.433Z,71.10
2018-10-18T10:17:43.484Z,71.30
2018-10-18T10:18:43.480Z,71.23
2018-10-18T10:19:43.396Z,71.53
2018-10-18T10:20:43.386Z,71.44
2018-10-18T10:21:43.383Z,71.44
2018-10-18T10:22:43.385Z,71.23
2018-10-18T10:23:43.427Z,71.64
2018-10-18T10:24:43.419Z,71.64
2018-10-18T10:25:43.338Z,71.44
2018-10-18T10:26:43.322Z,71.73
2018-10-18T10:27:43.326Z,71.73
2018-10-18T10:28:43.483Z,71.64
2018-10-18T10:29:43.295Z,71.53
2018-10-18T10:30:43.285Z,71.77
2018-10-18T10:31:43.275Z,71.97
2018-10-18T10:32:43.264Z,71.87
2018-10-18T10:33:43.313Z,72.38
2018-10-18T10:34:43.238Z,72.17
2018-10-18T10:35:43.339Z,72.58
2018-10-18T10:36:43.219Z,71.94
2018-10-18T10:37:43.235Z,72.27
2018-10-18T10:38:43.267Z,72.47
2018-10-18T10:39:43.187Z,71.87
2018-10-18T10:40:43.175Z,71.57
2018-10-18T10:41:43.162Z,71.87
2018-10-18T10:42:43.178Z,71.87
2018-10-18T10:43:43.227Z,71.87
2018-10-18T10:44:43.154Z,71.94
2018-10-18T10:45:43.200Z,71.37
2018-10-18T10:46:43.109Z,71.17
2018-10-18T10:47:43.100Z,71.57
2018-10-18T10:48:43.165Z,71.37
2018-10-18T10:49:43.899Z,71.17
2018-10-18T10:50:43.076Z,71.33
2018-10-18T10:51:43.059Z,71.44
2018-10-18T10:52:43.048Z,71.47
2018-10-18T10:53:43.101Z,71.67
2018-10-18T10:54:43.045Z,71.57
2018-10-18T10:55:43.017Z,71.37
2018-10-18T10:56:43.007Z,71.47
2018-10-18T10:57:43.001Z,71.37
2018-10-18T10:58:43.916Z,71.37
2018-10-18T10:59:42.976Z,71.67
2018-10-18T11:00:42.960Z,71.37
2018-10-18T11:01:42.952Z,70.97
2018-10-18T11:02:42.946Z,70.97
2018-10-18T11:03:42.987Z,70.66
2018-10-18T11:04:42.921Z,70.66
2018-10-18T11:05:42.908Z,70.86
2018-10-18T11:06:42.938Z,71.06
2018-10-18T11:07:42.888Z,70.76
2018-10-18T11:08:42.967Z,70.66
2018-10-18T11:09:42.928Z,70.86
2018-10-18T11:10:43.406Z,70.97
2018-10-18T11:11:42.854Z,70.97
2018-10-18T11:12:43.421Z,70.56
2018-10-18T11:13:42.882Z,70.56
2018-10-18T11:14:42.812Z,70.66
2018-10-18T11:15:42.799Z,70.56
2018-10-18T11:16:42.796Z,70.66
2018-10-18T11:17:42.780Z,70.66
2018-10-18T11:18:42.838Z,70.53
2018-10-18T11:19:42.761Z,70.53
2018-10-18T11:20:42.747Z,70.56
2018-10-18T11:21:42.836Z,70.42
2018-10-18T11:22:42.733Z,70.42
2018-10-18T11:23:42.782Z,70.42
2018-10-18T11:24:42.803Z,70.42
2018-10-18T11:25:42.702Z,70.19
2018-10-18T11:26:42.683Z,69.99
2018-10-18T11:27:42.672Z,69.89
2018-10-18T11:28:42.725Z,69.99
2018-10-18T11:29:42.650Z,69.59
2018-10-18T11:30:42.644Z,69.79
2018-10-18T11:31:43.402Z,69.18
2018-10-18T11:32:43.403Z,69.25
2018-10-18T11:33:42.669Z,68.65
2018-10-18T11:34:42.606Z,68.65
2018-10-18T11:35:42.589Z,68.78
2018-10-18T11:36:42.579Z,68.75
2018-10-18T11:37:42.576Z,68.95
2018-10-18T11:38:42.629Z,69.25
2018-10-18T11:39:42.548Z,69.25
2018-10-18T11:40:42.539Z,68.24
2018-10-18T11:41:42.526Z,68.04
2018-10-18T11:42:42.591Z,68.24
2018-10-18T11:43:42.506Z,68.15
2018-10-18T11:44:42.559Z,68.65
2018-10-18T11:45:42.489Z,68.24
2018-10-18T11:46:42.477Z,68.21
2018-10-18T11:47:42.461Z,68.21
2018-10-18T11:48:42.453Z,68.21
2018-10-18T11:49:42.526Z,68.11
2018-10-18T11:50:42.433Z,67.81
2018-10-18T11:51:42.556Z,67.61
2018-10-18T11:52:43.407Z,67.98
2018-10-18T11:53:42.397Z,67.91
2018-10-18T11:54:42.453Z,67.68
2018-10-18T11:55:42.382Z,66.87
2018-10-18T11:56:42.368Z,67.47
2018-10-18T11:57:42.362Z,66.94
2018-10-18T11:58:42.345Z,66.94
2018-10-18T11:59:42.405Z,66.84
2018-10-18T12:00:42.326Z,66.54
2018-10-18T12:01:42.317Z,66.54
2018-10-18T12:02:42.312Z,65.84
2018-10-18T12:03:42.297Z,65.53
2018-10-18T12:04:42.345Z,65.30
2018-10-18T12:05:42.276Z,65.30
2018-10-18T12:06:42.262Z,65.41
2018-10-18T12:07:42.254Z,65.00
2018-10-18T12:08:42.240Z,65.00
2018-10-18T12:09:42.297Z,64.00
2018-10-18T12:10:42.220Z,64.00
2018-10-18T12:11:42.210Z,64.20
2018-10-18T12:12:42.201Z,64.20
2018-10-18T12:13:43.896Z,64.00
2018-10-18T12:14:42.240Z,64.10
2018-10-18T12:15:42.164Z,64.23
2018-10-18T12:16:42.164Z,64.03
2018-10-18T12:17:42.142Z,64.33
2018-10-18T12:18:42.139Z,63.93
2018-10-18T12:19:42.203Z,64.03
2018-10-18T12:20:42.115Z,63.82
2018-10-18T12:21:42.106Z,64.10
2018-10-18T12:22:42.096Z,63.32
2018-10-18T12:23:42.088Z,63.79
2018-10-18T12:24:42.135Z,63.59
2018-10-18T12:25:42.068Z,63.73
2018-10-18T12:26:42.074Z,63.73
2018-10-18T12:27:42.037Z,63.82
2018-10-18T12:28:42.029Z,63.82
2018-10-18T12:29:42.081Z,64.13
2018-10-18T12:30:42.007Z,63.82
2018-10-18T12:31:42.007Z,63.02
2018-10-18T12:32:41.988Z,63.22
2018-10-18T12:33:41.984Z,63.70
2018-10-18T12:34:42.469Z,63.53
2018-10-18T12:35:41.976Z,63.02
2018-10-18T12:36:41.946Z,62.99
2018-10-18T12:37:41.943Z,62.32
2018-10-18T12:38:41.921Z,63.32
2018-10-18T12:39:42.060Z,63.02
2018-10-18T12:40:41.941Z,63.62
2018-10-18T12:41:41.992Z,63.42
2018-10-18T12:42:41.882Z,63.82
2018-10-18T12:43:41.874Z,63.42
2018-10-18T12:44:41.926Z,63.02
2018-10-18T12:45:41.849Z,62.22
2018-10-18T12:46:41.840Z,62.02
2018-10-18T12:47:41.832Z,63.12
2018-10-18T12:48:41.879Z,62.12
2018-10-18T12:49:41.868Z,63.22
2018-10-18T12:50:41.796Z,63.02
2018-10-18T12:51:41.788Z,63.22
2018-10-18T12:52:41.782Z,63.73